sensor_id;sensor_type;location;lat;lon;timestamp;P1;durP1;ratioP1;P2;durP2;ratioP2
50649;SDS011;36621;60.058;30.346;2023-01-10T00:02:48;14.63;;;7.03;;
50649;SDS011;36621;60.058;30.346;2023-01-10T00:10:21;12.48;;;6.47;;
50649;SDS011;36621;60.058;30.346;2023-01-10T00:17:54;11.18;;;6.28;;
50649;SDS011;36621;60.058;30.346;2023-01-10T00:25:26;15.27;;;7.35;;
50649;SDS011;36621;60.058;30.346;2023-01-10T00:32:58;8.02;;;4.93;;
50649;SDS011;36621;60.058;30.346;2023-01-10T00:40:33;11.70;;;5.43;;
50649;SDS011;36621;60.058;30.346;2023-01-10T00:48:05;10.77;;;5.45;;
50649;SDS011;36621;60.058;30.346;2023-01-10T00:55:38;10.50;;;5.93;;
50649;SDS011;36621;60.058;30.346;2023-01-10T01:03:11;13.77;;;7.45;;
50649;SDS011;36621;60.058;30.346;2023-01-10T01:10:44;11.20;;;6.72;;
50649;SDS011;36621;60.058;30.346;2023-01-10T01:18:17;15.05;;;7.25;;
50649;SDS011;36621;60.058;30.346;2023-01-10T01:25:52;12.65;;;6.65;;
50649;SDS011;36621;60.058;30.346;2023-01-10T01:33:24;10.10;;;6.50;;
50649;SDS011;36621;60.058;30.346;2023-01-10T01:40:57;11.13;;;6.53;;
50649;SDS011;36621;60.058;30.346;2023-01-10T01:48:33;11.65;;;6.55;;
50649;SDS011;36621;60.058;30.346;2023-01-10T01:56:10;9.50;;;5.23;;
50649;SDS011;36621;60.058;30.346;2023-01-10T02:11:21;14.52;;;6.78;;
50649;SDS011;36621;60.058;30.346;2023-01-10T02:18:53;15.10;;;7.95;;
50649;SDS011;36621;60.058;30.346;2023-01-10T02:26:41;14.18;;;6.88;;
50649;SDS011;36621;60.058;30.346;2023-01-10T02:34:31;11.00;;;6.78;;
50649;SDS011;36621;60.058;30.346;2023-01-10T02:42:14;11.68;;;7.28;;
50649;SDS011;36621;60.058;30.346;2023-01-10T02:49:55;11.57;;;6.13;;
50649;SDS011;36621;60.058;30.346;2023-01-10T02:57:33;18.48;;;8.40;;
50649;SDS011;36621;60.058;30.346;2023-01-10T03:05:17;16.35;;;6.95;;
50649;SDS011;36621;60.058;30.346;2023-01-10T03:13:00;12.63;;;7.28;;
50649;SDS011;36621;60.058;30.346;2023-01-10T03:20:35;12.70;;;7.07;;
50649;SDS011;36621;60.058;30.346;2023-01-10T03:28:11;12.90;;;7.13;;
50649;SDS011;36621;60.058;30.346;2023-01-10T03:35:52;15.02;;;7.57;;
50649;SDS011;36621;60.058;30.346;2023-01-10T03:43:36;16.33;;;7.90;;
50649;SDS011;36621;60.058;30.346;2023-01-10T03:51:33;12.27;;;6.38;;
50649;SDS011;36621;60.058;30.346;2023-01-10T03:59:07;15.18;;;8.38;;
50649;SDS011;36621;60.058;30.346;2023-01-10T04:06:40;14.15;;;7.22;;
50649;SDS011;36621;60.058;30.346;2023-01-10T04:14:13;13.82;;;7.90;;
50649;SDS011;36621;60.058;30.346;2023-01-10T04:21:56;12.68;;;6.82;;
50649;SDS011;36621;60.058;30.346;2023-01-10T04:29:41;13.60;;;7.35;;
50649;SDS011;36621;60.058;30.346;2023-01-10T04:37:14;15.95;;;7.63;;
50649;SDS011;36621;60.058;30.346;2023-01-10T04:44:46;14.80;;;7.65;;
50649;SDS011;36621;60.058;30.346;2023-01-10T04:52:20;15.10;;;8.30;;
50649;SDS011;36621;60.058;30.346;2023-01-10T04:59:55;14.85;;;7.47;;
50649;SDS011;36621;60.058;30.346;2023-01-10T05:07:27;15.15;;;8.45;;
50649;SDS011;36621;60.058;30.346;2023-01-10T05:15:00;15.13;;;8.32;;
50649;SDS011;36621;60.058;30.346;2023-01-10T05:22:33;14.88;;;8.05;;
50649;SDS011;36621;60.058;30.346;2023-01-10T05:30:05;14.45;;;7.30;;
50649;SDS011;36621;60.058;30.346;2023-01-10T05:37:40;15.70;;;9.05;;
50649;SDS011;36621;60.058;30.346;2023-01-10T05:45:12;15.63;;;8.07;;
50649;SDS011;36621;60.058;30.346;2023-01-10T05:52:45;15.95;;;7.53;;
50649;SDS011;36621;60.058;30.346;2023-01-10T06:00:17;14.38;;;7.65;;
50649;SDS011;36621;60.058;30.346;2023-01-10T06:07:51;15.35;;;8.07;;
50649;SDS011;36621;60.058;30.346;2023-01-10T06:15:23;15.02;;;8.15;;
50649;SDS011;36621;60.058;30.346;2023-01-10T06:22:56;15.98;;;8.27;;
50649;SDS011;36621;60.058;30.346;2023-01-10T06:30:31;12.23;;;6.78;;
50649;SDS011;36621;60.058;30.346;2023-01-10T06:38:05;16.33;;;8.13;;
50649;SDS011;36621;60.058;30.346;2023-01-10T06:45:38;14.25;;;6.50;;
50649;SDS011;36621;60.058;30.346;2023-01-10T06:53:11;14.23;;;7.32;;
50649;SDS011;36621;60.058;30.346;2023-01-10T07:00:43;17.48;;;10.13;;
50649;SDS011;36621;60.058;30.346;2023-01-10T07:08:16;20.55;;;9.18;;
50649;SDS011;36621;60.058;30.346;2023-01-10T07:15:48;15.70;;;8.75;;
50649;SDS011;36621;60.058;30.346;2023-01-10T07:23:21;15.43;;;8.07;;
50649;SDS011;36621;60.058;30.346;2023-01-10T07:30:53;15.73;;;8.93;;
50649;SDS011;36621;60.058;30.346;2023-01-10T07:38:29;22.00;;;10.70;;
50649;SDS011;36621;60.058;30.346;2023-01-10T07:46:01;23.55;;;10.95;;
50649;SDS011;36621;60.058;30.346;2023-01-10T07:53:35;18.05;;;9.85;;
50649;SDS011;36621;60.058;30.346;2023-01-10T08:01:08;18.05;;;10.23;;
50649;SDS011;36621;60.058;30.346;2023-01-10T08:08:41;17.27;;;9.43;;
50649;SDS011;36621;60.058;30.346;2023-01-10T08:16:14;21.50;;;10.93;;
50649;SDS011;36621;60.058;30.346;2023-01-10T08:23:47;21.33;;;10.07;;
50649;SDS011;36621;60.058;30.346;2023-01-10T08:31:19;21.00;;;9.60;;
50649;SDS011;36621;60.058;30.346;2023-01-10T08:38:54;20.33;;;10.18;;
50649;SDS011;36621;60.058;30.346;2023-01-10T08:46:26;20.70;;;10.02;;
50649;SDS011;36621;60.058;30.346;2023-01-10T08:53:59;10.68;;;5.80;;
50649;SDS011;36621;60.058;30.346;2023-01-10T09:01:31;24.52;;;12.55;;
50649;SDS011;36621;60.058;30.346;2023-01-10T09:09:04;18.67;;;10.02;;
50649;SDS011;36621;60.058;30.346;2023-01-10T09:16:37;21.27;;;10.27;;
50649;SDS011;36621;60.058;30.346;2023-01-10T09:24:09;19.88;;;10.75;;
50649;SDS011;36621;60.058;30.346;2023-01-10T09:31:42;20.50;;;10.57;;
50649;SDS011;36621;60.058;30.346;2023-01-10T09:39:21;24.13;;;10.98;;
50649;SDS011;36621;60.058;30.346;2023-01-10T09:54:32;19.58;;;10.65;;
50649;SDS011;36621;60.058;30.346;2023-01-10T10:09:48;22.67;;;9.75;;
50649;SDS011;36621;60.058;30.346;2023-01-10T10:17:24;21.90;;;10.60;;
50649;SDS011;36621;60.058;30.346;2023-01-10T10:25:12;18.65;;;10.32;;
50649;SDS011;36621;60.058;30.346;2023-01-10T10:33:01;22.38;;;11.35;;
50649;SDS011;36621;60.058;30.346;2023-01-10T10:40:47;22.33;;;10.18;;
50649;SDS011;36621;60.058;30.346;2023-01-10T10:48:28;19.92;;;9.32;;
50649;SDS011;36621;60.058;30.346;2023-01-10T10:56:04;22.90;;;10.98;;
50649;SDS011;36621;60.058;30.346;2023-01-10T11:03:41;24.20;;;11.27;;
50649;SDS011;36621;60.058;30.346;2023-01-10T11:11:19;16.75;;;9.75;;
50649;SDS011;36621;60.058;30.346;2023-01-10T11:26:50;18.02;;;8.18;;
50649;SDS011;36621;60.058;30.346;2023-01-10T11:34:23;23.85;;;11.63;;
50649;SDS011;36621;60.058;30.346;2023-01-10T11:42:10;23.08;;;10.15;;
50649;SDS011;36621;60.058;30.346;2023-01-10T11:49:56;26.13;;;11.52;;
50649;SDS011;36621;60.058;30.346;2023-01-10T11:57:30;20.13;;;9.85;;
50649;SDS011;36621;60.058;30.346;2023-01-10T12:05:04;21.73;;;11.25;;
50649;SDS011;36621;60.058;30.346;2023-01-10T12:12:42;20.48;;;10.80;;
50649;SDS011;36621;60.058;30.346;2023-01-10T12:20:24;24.55;;;11.90;;
50649;SDS011;36621;60.058;30.346;2023-01-10T12:28:00;22.23;;;11.45;;
50649;SDS011;36621;60.058;30.346;2023-01-10T12:35:35;20.80;;;11.48;;
50649;SDS011;36621;60.058;30.346;2023-01-10T12:43:12;22.83;;;11.07;;
50649;SDS011;36621;60.058;30.346;2023-01-10T12:51:06;23.95;;;11.05;;
50649;SDS011;36621;60.058;30.346;2023-01-10T13:16:41;20.40;;;10.73;;
50649;SDS011;36621;60.058;30.346;2023-01-10T13:33:36;20.45;;;8.68;;
50649;SDS011;36621;60.058;30.346;2023-01-10T13:50:04;21.25;;;9.50;;
50649;SDS011;36621;60.058;30.346;2023-01-10T13:58:39;18.00;;;9.38;;
50649;SDS011;36621;60.058;30.346;2023-01-10T14:06:50;18.85;;;9.10;;
50649;SDS011;36621;60.058;30.346;2023-01-10T14:14:55;20.13;;;9.50;;
50649;SDS011;36621;60.058;30.346;2023-01-10T14:22:31;15.88;;;9.23;;
50649;SDS011;36621;60.058;30.346;2023-01-10T14:30:05;21.00;;;8.98;;
50649;SDS011;36621;60.058;30.346;2023-01-10T14:37:39;15.65;;;8.80;;
50649;SDS011;36621;60.058;30.346;2023-01-10T14:45:19;18.00;;;9.00;;
50649;SDS011;36621;60.058;30.346;2023-01-10T14:53:01;18.80;;;9.40;;
50649;SDS011;36621;60.058;30.346;2023-01-10T15:00:33;17.88;;;8.82;;
50649;SDS011;36621;60.058;30.346;2023-01-10T15:08:19;21.35;;;10.05;;
50649;SDS011;36621;60.058;30.346;2023-01-10T15:15:52;14.23;;;8.15;;
50649;SDS011;36621;60.058;30.346;2023-01-10T15:23:31;16.85;;;8.80;;
50649;SDS011;36621;60.058;30.346;2023-01-10T15:31:04;15.25;;;8.75;;
50649;SDS011;36621;60.058;30.346;2023-01-10T15:38:41;15.25;;;7.18;;
50649;SDS011;36621;60.058;30.346;2023-01-10T15:55:36;16.40;;;8.85;;
50649;SDS011;36621;60.058;30.346;2023-01-10T16:03:13;16.95;;;8.98;;
50649;SDS011;36621;60.058;30.346;2023-01-10T16:10:53;14.18;;;8.10;;
50649;SDS011;36621;60.058;30.346;2023-01-10T16:19:33;13.85;;;7.88;;
50649;SDS011;36621;60.058;30.346;2023-01-10T16:35:11;14.02;;;8.13;;
50649;SDS011;36621;60.058;30.346;2023-01-10T16:59:26;13.88;;;7.75;;
50649;SDS011;36621;60.058;30.346;2023-01-10T17:10:52;14.77;;;7.72;;
50649;SDS011;36621;60.058;30.346;2023-01-10T17:18:41;14.10;;;8.48;;
50649;SDS011;36621;60.058;30.346;2023-01-10T17:26:57;16.48;;;7.93;;
50649;SDS011;36621;60.058;30.346;2023-01-10T17:36:26;15.07;;;8.25;;
50649;SDS011;36621;60.058;30.346;2023-01-10T17:52:30;16.08;;;8.43;;
50649;SDS011;36621;60.058;30.346;2023-01-10T18:00:04;18.77;;;9.30;;
50649;SDS011;36621;60.058;30.346;2023-01-10T18:07:49;13.73;;;8.75;;
50649;SDS011;36621;60.058;30.346;2023-01-10T18:15:23;14.80;;;8.30;;
50649;SDS011;36621;60.058;30.346;2023-01-10T18:23:07;15.48;;;8.15;;
50649;SDS011;36621;60.058;30.346;2023-01-10T18:30:55;24.30;;;10.27;;
50649;SDS011;36621;60.058;30.346;2023-01-10T18:38:32;12.77;;;8.88;;
50649;SDS011;36621;60.058;30.346;2023-01-10T18:46:15;15.45;;;9.00;;
50649;SDS011;36621;60.058;30.346;2023-01-10T18:54:01;17.65;;;9.50;;
50649;SDS011;36621;60.058;30.346;2023-01-10T19:01:58;15.57;;;8.32;;
50649;SDS011;36621;60.058;30.346;2023-01-10T19:09:31;16.25;;;8.55;;
50649;SDS011;36621;60.058;30.346;2023-01-10T19:17:05;12.55;;;7.43;;
50649;SDS011;36621;60.058;30.346;2023-01-10T19:24:38;12.73;;;7.10;;
50649;SDS011;36621;60.058;30.346;2023-01-10T19:32:13;12.23;;;6.82;;
50649;SDS011;36621;60.058;30.346;2023-01-10T19:39:46;11.10;;;7.40;;
50649;SDS011;36621;60.058;30.346;2023-01-10T19:47:21;11.43;;;6.85;;
50649;SDS011;36621;60.058;30.346;2023-01-10T19:55:22;11.02;;;7.13;;
50649;SDS011;36621;60.058;30.346;2023-01-10T20:03:04;14.00;;;7.35;;
50649;SDS011;36621;60.058;30.346;2023-01-10T20:10:40;13.95;;;7.22;;
50649;SDS011;36621;60.058;30.346;2023-01-10T20:18:13;13.38;;;8.02;;
50649;SDS011;36621;60.058;30.346;2023-01-10T20:25:53;16.30;;;8.85;;
50649;SDS011;36621;60.058;30.346;2023-01-10T20:33:28;12.55;;;7.85;;
50649;SDS011;36621;60.058;30.346;2023-01-10T20:41:01;12.32;;;7.70;;
50649;SDS011;36621;60.058;30.346;2023-01-10T20:48:38;11.77;;;7.00;;
50649;SDS011;36621;60.058;30.346;2023-01-10T20:56:12;11.88;;;7.07;;
50649;SDS011;36621;60.058;30.346;2023-01-10T21:03:46;11.90;;;6.22;;
50649;SDS011;36621;60.058;30.346;2023-01-10T21:11:18;9.18;;;6.35;;
50649;SDS011;36621;60.058;30.346;2023-01-10T21:18:51;9.68;;;5.63;;
50649;SDS011;36621;60.058;30.346;2023-01-10T21:26:23;13.60;;;6.03;;
50649;SDS011;36621;60.058;30.346;2023-01-10T21:33:56;8.70;;;5.38;;
50649;SDS011;36621;60.058;30.346;2023-01-10T21:41:28;9.35;;;5.70;;
50649;SDS011;36621;60.058;30.346;2023-01-10T21:49:19;11.18;;;5.78;;
50649;SDS011;36621;60.058;30.346;2023-01-10T21:56:51;10.45;;;7.18;;
50649;SDS011;36621;60.058;30.346;2023-01-10T22:04:24;8.27;;;5.15;;
50649;SDS011;36621;60.058;30.346;2023-01-10T22:11:56;9.32;;;5.35;;
50649;SDS011;36621;60.058;30.346;2023-01-10T22:19:28;12.35;;;5.97;;
50649;SDS011;36621;60.058;30.346;2023-01-10T22:27:00;8.77;;;5.28;;
50649;SDS011;36621;60.058;30.346;2023-01-10T22:34:33;9.93;;;5.68;;
50649;SDS011;36621;60.058;30.346;2023-01-10T22:42:05;8.65;;;5.35;;
50649;SDS011;36621;60.058;30.346;2023-01-10T22:49:38;8.45;;;5.03;;
50649;SDS011;36621;60.058;30.346;2023-01-10T22:57:10;10.50;;;5.60;;
50649;SDS011;36621;60.058;30.346;2023-01-10T23:04:44;8.95;;;5.38;;
50649;SDS011;36621;60.058;30.346;2023-01-10T23:12:16;9.88;;;6.00;;
50649;SDS011;36621;60.058;30.346;2023-01-10T23:19:49;11.23;;;5.80;;
50649;SDS011;36621;60.058;30.346;2023-01-10T23:27:21;9.73;;;5.75;;
50649;SDS011;36621;60.058;30.346;2023-01-10T23:34:53;11.35;;;6.13;;
50649;SDS011;36621;60.058;30.346;2023-01-10T23:42:25;8.10;;;4.72;;
50649;SDS011;36621;60.058;30.346;2023-01-10T23:49:58;9.05;;;5.38;;
50649;SDS011;36621;60.058;30.346;2023-01-10T23:57:30;7.82;;;4.53;;
